sensor_id;sensor_type;location;lat;lon;timestamp;temperature;humidity
3792;DHT22;1911;53.768;11.474;2023-02-01T00:00:58;4.50;99.90
3792;DHT22;1911;53.768;11.474;2023-02-01T00:03:24;4.40;99.90
3792;DHT22;1911;53.768;11.474;2023-02-01T00:05:57;4.40;99.90
3792;DHT22;1911;53.768;11.474;2023-02-01T00:08:22;4.30;99.90
3792;DHT22;1911;53.768;11.474;2023-02-01T00:10:48;4.40;99.90
3792;DHT22;1911;53.768;11.474;2023-02-01T00:13:13;4.40;99.90
3792;DHT22;1911;53.768;11.474;2023-02-01T00:15:39;4.30;99.90
3792;DHT22;1911;53.768;11.474;2023-02-01T00:18:04;4.30;99.90
3792;DHT22;1911;53.768;11.474;2023-02-01T00:20:30;3.70;99.90
3792;DHT22;1911;53.768;11.474;2023-02-01T00:22:56;3.20;99.90
3792;DHT22;1911;53.768;11.474;2023-02-01T00:25:21;3.10;99.90
3792;DHT22;1911;53.768;11.474;2023-02-01T00:27:50;3.10;99.90
3792;DHT22;1911;53.768;11.474;2023-02-01T00:30:17;3.10;99.90
3792;DHT22;1911;53.768;11.474;2023-02-01T00:32:42;3.30;99.90
3792;DHT22;1911;53.768;11.474;2023-02-01T00:35:08;3.40;99.90
3792;DHT22;1911;53.768;11.474;2023-02-01T00:37:34;3.60;99.90
3792;DHT22;1911;53.768;11.474;2023-02-01T00:39:59;3.70;99.90
3792;DHT22;1911;53.768;11.474;2023-02-01T00:42:25;3.80;99.90
3792;DHT22;1911;53.768;11.474;2023-02-01T00:44:50;4.00;99.90
3792;DHT22;1911;53.768;11.474;2023-02-01T00:47:16;4.10;99.90
3792;DHT22;1911;53.768;11.474;2023-02-01T00:49:42;4.20;99.90
3792;DHT22;1911;53.768;11.474;2023-02-01T00:52:07;4.20;99.90
3792;DHT22;1911;53.768;11.474;2023-02-01T00:54:33;4.30;99.90
3792;DHT22;1911;53.768;11.474;2023-02-01T00:56:59;4.40;99.90
3792;DHT22;1911;53.768;11.474;2023-02-01T00:59:25;4.40;99.90
3792;DHT22;1911;53.768;11.474;2023-02-01T01:01:51;4.40;99.90
3792;DHT22;1911;53.768;11.474;2023-02-01T01:04:16;4.40;99.90
3792;DHT22;1911;53.768;11.474;2023-02-01T01:06:42;4.50;99.90
3792;DHT22;1911;53.768;11.474;2023-02-01T01:09:07;4.40;99.90
3792;DHT22;1911;53.768;11.474;2023-02-01T01:11:36;4.50;99.90
3792;DHT22;1911;53.768;11.474;2023-02-01T01:14:03;4.40;99.90
3792;DHT22;1911;53.768;11.474;2023-02-01T01:16:30;4.50;99.90
3792;DHT22;1911;53.768;11.474;2023-02-01T01:18:56;4.50;99.90
3792;DHT22;1911;53.768;11.474;2023-02-01T01:24:00;4.70;99.90
3792;DHT22;1911;53.768;11.474;2023-02-01T01:26:31;4.70;99.90
3792;DHT22;1911;53.768;11.474;2023-02-01T01:32:06;4.60;99.90
3792;DHT22;1911;53.768;11.474;2023-02-01T01:35:24;4.50;99.90
3792;DHT22;1911;53.768;11.474;2023-02-01T01:38:17;4.50;99.90
3792;DHT22;1911;53.768;11.474;2023-02-01T01:40:47;4.40;99.90
3792;DHT22;1911;53.768;11.474;2023-02-01T01:49:05;4.40;99.90
3792;DHT22;1911;53.768;11.474;2023-02-01T01:51:51;4.40;99.90
3792;DHT22;1911;53.768;11.474;2023-02-01T01:55:06;4.30;99.90
3792;DHT22;1911;53.768;11.474;2023-02-01T05:10:29;4.10;99.90
3792;DHT22;1911;53.768;11.474;2023-02-01T05:12:59;4.00;99.90
3792;DHT22;1911;53.768;11.474;2023-02-01T05:15:43;3.90;99.90
3792;DHT22;1911;53.768;11.474;2023-02-01T05:18:15;3.80;99.90
3792;DHT22;1911;53.768;11.474;2023-02-01T05:20:44;3.70;99.90
3792;DHT22;1911;53.768;11.474;2023-02-01T05:23:09;3.60;99.90
3792;DHT22;1911;53.768;11.474;2023-02-01T05:25:35;3.50;99.90
3792;DHT22;1911;53.768;11.474;2023-02-01T05:28:01;3.50;99.90
3792;DHT22;1911;53.768;11.474;2023-02-01T05:30:27;3.40;99.90
3792;DHT22;1911;53.768;11.474;2023-02-01T05:32:52;3.30;99.90
3792;DHT22;1911;53.768;11.474;2023-02-01T05:35:19;3.40;99.90
3792;DHT22;1911;53.768;11.474;2023-02-01T05:37:44;3.30;99.90
3792;DHT22;1911;53.768;11.474;2023-02-01T05:40:10;3.40;99.90
3792;DHT22;1911;53.768;11.474;2023-02-01T05:42:36;3.30;99.90
3792;DHT22;1911;53.768;11.474;2023-02-01T05:45:02;3.30;99.90
3792;DHT22;1911;53.768;11.474;2023-02-01T05:47:28;3.30;99.90
3792;DHT22;1911;53.768;11.474;2023-02-01T05:49:54;3.30;99.90
3792;DHT22;1911;53.768;11.474;2023-02-01T05:52:19;3.30;99.90
3792;DHT22;1911;53.768;11.474;2023-02-01T05:54:46;3.20;99.90
3792;DHT22;1911;53.768;11.474;2023-02-01T05:57:12;3.20;99.90
3792;DHT22;1911;53.768;11.474;2023-02-01T05:59:39;3.20;99.90
3792;DHT22;1911;53.768;11.474;2023-02-01T06:02:10;3.20;99.90
3792;DHT22;1911;53.768;11.474;2023-02-01T06:04:36;3.20;99.90
3792;DHT22;1911;53.768;11.474;2023-02-01T06:07:02;3.20;99.90
3792;DHT22;1911;53.768;11.474;2023-02-01T06:09:31;3.20;99.90
3792;DHT22;1911;53.768;11.474;2023-02-01T06:11:56;3.20;99.90
3792;DHT22;1911;53.768;11.474;2023-02-01T06:14:23;3.20;99.90
3792;DHT22;1911;53.768;11.474;2023-02-01T06:16:49;3.20;99.90
3792;DHT22;1911;53.768;11.474;2023-02-01T06:19:15;3.20;99.90
3792;DHT22;1911;53.768;11.474;2023-02-01T06:21:41;3.10;99.90
3792;DHT22;1911;53.768;11.474;2023-02-01T06:24:10;3.00;99.90
3792;DHT22;1911;53.768;11.474;2023-02-01T06:26:40;3.00;99.90
3792;DHT22;1911;53.768;11.474;2023-02-01T06:29:09;2.90;99.90
3792;DHT22;1911;53.768;11.474;2023-02-01T06:31:35;2.90;99.90
3792;DHT22;1911;53.768;11.474;2023-02-01T06:34:00;2.90;99.90
3792;DHT22;1911;53.768;11.474;2023-02-01T06:36:26;2.80;99.90
3792;DHT22;1911;53.768;11.474;2023-02-01T06:38:52;2.80;99.90
3792;DHT22;1911;53.768;11.474;2023-02-01T06:41:17;2.70;99.90
3792;DHT22;1911;53.768;11.474;2023-02-01T06:43:45;2.80;99.90
3792;DHT22;1911;53.768;11.474;2023-02-01T06:46:12;2.70;99.90
3792;DHT22;1911;53.768;11.474;2023-02-01T06:48:38;2.70;99.90
3792;DHT22;1911;53.768;11.474;2023-02-01T06:51:03;2.70;99.90
3792;DHT22;1911;53.768;11.474;2023-02-01T06:53:30;2.70;99.90
3792;DHT22;1911;53.768;11.474;2023-02-01T06:55:58;2.70;99.90
3792;DHT22;1911;53.768;11.474;2023-02-01T06:58:27;2.70;99.90
3792;DHT22;1911;53.768;11.474;2023-02-01T07:00:53;2.70;99.90
3792;DHT22;1911;53.768;11.474;2023-02-01T07:03:19;2.80;99.90
3792;DHT22;1911;53.768;11.474;2023-02-01T07:05:45;2.80;99.90
3792;DHT22;1911;53.768;11.474;2023-02-01T07:08:10;2.90;99.90
3792;DHT22;1911;53.768;11.474;2023-02-01T07:10:36;2.90;99.90
3792;DHT22;1911;53.768;11.474;2023-02-01T07:13:02;3.00;99.90
3792;DHT22;1911;53.768;11.474;2023-02-01T07:15:28;3.00;99.90
3792;DHT22;1911;53.768;11.474;2023-02-01T07:17:56;3.10;99.90
3792;DHT22;1911;53.768;11.474;2023-02-01T07:20:23;3.10;99.90
3792;DHT22;1911;53.768;11.474;2023-02-01T07:22:49;3.20;99.90
3792;DHT22;1911;53.768;11.474;2023-02-01T07:25:25;3.20;99.90
3792;DHT22;1911;53.768;11.474;2023-02-01T07:27:51;3.30;99.90
3792;DHT22;1911;53.768;11.474;2023-02-01T07:30:17;3.30;99.90
3792;DHT22;1911;53.768;11.474;2023-02-01T07:32:42;3.30;99.90
3792;DHT22;1911;53.768;11.474;2023-02-01T07:35:08;3.40;99.90
3792;DHT22;1911;53.768;11.474;2023-02-01T07:37:34;3.40;99.90
3792;DHT22;1911;53.768;11.474;2023-02-01T07:40:00;3.50;99.90
3792;DHT22;1911;53.768;11.474;2023-02-01T07:42:26;3.50;99.90
3792;DHT22;1911;53.768;11.474;2023-02-01T07:44:51;3.50;99.90
3792;DHT22;1911;53.768;11.474;2023-02-01T07:47:17;3.60;99.90
3792;DHT22;1911;53.768;11.474;2023-02-01T07:49:42;3.60;99.90
3792;DHT22;1911;53.768;11.474;2023-02-01T07:52:08;3.60;99.90
3792;DHT22;1911;53.768;11.474;2023-02-01T07:54:34;3.60;99.90
3792;DHT22;1911;53.768;11.474;2023-02-01T07:57:01;3.60;99.90
3792;DHT22;1911;53.768;11.474;2023-02-01T07:59:26;3.60;99.90
3792;DHT22;1911;53.768;11.474;2023-02-01T08:01:52;3.60;99.90
3792;DHT22;1911;53.768;11.474;2023-02-01T08:04:17;3.60;99.90
3792;DHT22;1911;53.768;11.474;2023-02-01T08:06:43;3.60;99.90
3792;DHT22;1911;53.768;11.474;2023-02-01T08:09:09;3.60;99.90
3792;DHT22;1911;53.768;11.474;2023-02-01T08:11:36;3.60;99.90
3792;DHT22;1911;53.768;11.474;2023-02-01T08:14:03;3.60;99.90
3792;DHT22;1911;53.768;11.474;2023-02-01T08:16:29;3.60;99.90
3792;DHT22;1911;53.768;11.474;2023-02-01T08:18:55;3.70;99.90
3792;DHT22;1911;53.768;11.474;2023-02-01T08:21:26;3.70;99.90
3792;DHT22;1911;53.768;11.474;2023-02-01T08:24:05;3.70;99.90
3792;DHT22;1911;53.768;11.474;2023-02-01T08:26:31;3.70;99.90
3792;DHT22;1911;53.768;11.474;2023-02-01T08:29:01;3.70;99.90
3792;DHT22;1911;53.768;11.474;2023-02-01T08:31:31;3.70;99.90
3792;DHT22;1911;53.768;11.474;2023-02-01T08:34:02;3.70;99.90
3792;DHT22;1911;53.768;11.474;2023-02-01T08:36:30;3.70;99.90
3792;DHT22;1911;53.768;11.474;2023-02-01T08:38:57;3.70;99.90
3792;DHT22;1911;53.768;11.474;2023-02-01T08:41:25;3.70;99.90
3792;DHT22;1911;53.768;11.474;2023-02-01T08:43:57;3.70;99.90
3792;DHT22;1911;53.768;11.474;2023-02-01T08:46:25;3.70;99.90
3792;DHT22;1911;53.768;11.474;2023-02-01T08:48:51;3.80;99.90
3792;DHT22;1911;53.768;11.474;2023-02-01T08:51:19;3.80;99.90
3792;DHT22;1911;53.768;11.474;2023-02-01T08:53:53;4.00;99.90
3792;DHT22;1911;53.768;11.474;2023-02-01T08:56:20;4.10;99.90
3792;DHT22;1911;53.768;11.474;2023-02-01T08:58:46;4.20;99.90
3792;DHT22;1911;53.768;11.474;2023-02-01T09:01:14;4.40;99.90
3792;DHT22;1911;53.768;11.474;2023-02-01T09:03:42;4.60;99.90
3792;DHT22;1911;53.768;11.474;2023-02-01T09:06:10;4.60;99.90
3792;DHT22;1911;53.768;11.474;2023-02-01T09:08:37;4.40;99.90
3792;DHT22;1911;53.768;11.474;2023-02-01T09:11:07;4.40;99.90
3792;DHT22;1911;53.768;11.474;2023-02-01T09:13:34;4.40;99.90
3792;DHT22;1911;53.768;11.474;2023-02-01T09:16:00;4.40;99.90
3792;DHT22;1911;53.768;11.474;2023-02-01T09:18:26;4.30;99.90
3792;DHT22;1911;53.768;11.474;2023-02-01T09:20:52;4.30;99.90
3792;DHT22;1911;53.768;11.474;2023-02-01T09:23:18;4.20;99.90
3792;DHT22;1911;53.768;11.474;2023-02-01T09:25:46;4.40;99.90
3792;DHT22;1911;53.768;11.474;2023-02-01T09:28:11;4.30;99.90
3792;DHT22;1911;53.768;11.474;2023-02-01T09:30:37;4.30;99.90
3792;DHT22;1911;53.768;11.474;2023-02-01T09:33:04;4.40;99.90
3792;DHT22;1911;53.768;11.474;2023-02-01T09:35:30;4.40;99.90
3792;DHT22;1911;53.768;11.474;2023-02-01T09:38:16;4.50;99.90
3792;DHT22;1911;53.768;11.474;2023-02-01T09:47:51;4.40;99.90
3792;DHT22;1911;53.768;11.474;2023-02-01T09:50:22;4.40;99.90
3792;DHT22;1911;53.768;11.474;2023-02-01T09:56:24;4.30;99.90
3792;DHT22;1911;53.768;11.474;2023-02-01T09:59:01;4.30;99.90
3792;DHT22;1911;53.768;11.474;2023-02-01T10:02:02;4.50;99.90
3792;DHT22;1911;53.768;11.474;2023-02-01T10:04:47;4.60;99.90
3792;DHT22;1911;53.768;11.474;2023-02-01T10:11:18;4.90;99.90
3792;DHT22;1911;53.768;11.474;2023-02-01T10:26:25;5.60;99.90
3792;DHT22;1911;53.768;11.474;2023-02-01T10:32:34;5.80;99.90
3792;DHT22;1911;53.768;11.474;2023-02-01T10:35:31;6.00;99.90
3792;DHT22;1911;53.768;11.474;2023-02-01T10:38:01;6.00;99.90
3792;DHT22;1911;53.768;11.474;2023-02-01T10:40:29;6.20;99.90
3792;DHT22;1911;53.768;11.474;2023-02-01T10:42:59;6.20;99.90
3792;DHT22;1911;53.768;11.474;2023-02-01T10:45:28;6.20;99.90
3792;DHT22;1911;53.768;11.474;2023-02-01T10:47:56;6.40;99.90
3792;DHT22;1911;53.768;11.474;2023-02-01T10:50:50;6.40;99.90
3792;DHT22;1911;53.768;11.474;2023-02-01T10:53:37;6.40;99.90
3792;DHT22;1911;53.768;11.474;2023-02-01T10:56:10;6.50;99.90
3792;DHT22;1911;53.768;11.474;2023-02-01T10:58:44;6.60;99.90
3792;DHT22;1911;53.768;11.474;2023-02-01T11:01:17;6.50;99.90
3792;DHT22;1911;53.768;11.474;2023-02-01T11:04:00;6.40;99.90
3792;DHT22;1911;53.768;11.474;2023-02-01T11:08:55;6.30;99.90
3792;DHT22;1911;53.768;11.474;2023-02-01T11:11:22;6.30;99.90
3792;DHT22;1911;53.768;11.474;2023-02-01T11:13:57;6.40;99.90
3792;DHT22;1911;53.768;11.474;2023-02-01T11:16:30;6.20;99.90
3792;DHT22;1911;53.768;11.474;2023-02-01T11:18:58;6.30;99.90
3792;DHT22;1911;53.768;11.474;2023-02-01T11:21:23;6.40;99.90
3792;DHT22;1911;53.768;11.474;2023-02-01T11:23:49;6.40;99.90
3792;DHT22;1911;53.768;11.474;2023-02-01T11:26:24;6.60;99.90
3792;DHT22;1911;53.768;11.474;2023-02-01T11:29:11;6.60;99.90
3792;DHT22;1911;53.768;11.474;2023-02-01T11:31:39;6.60;99.90
3792;DHT22;1911;53.768;11.474;2023-02-01T11:34:15;6.50;99.90
3792;DHT22;1911;53.768;11.474;2023-02-01T11:36:45;6.40;99.90
3792;DHT22;1911;53.768;11.474;2023-02-01T11:44:39;6.30;99.90
3792;DHT22;1911;53.768;11.474;2023-02-01T11:47:27;6.30;99.90
3792;DHT22;1911;53.768;11.474;2023-02-01T11:49:56;6.20;99.90
3792;DHT22;1911;53.768;11.474;2023-02-01T11:58:49;6.10;99.90
3792;DHT22;1911;53.768;11.474;2023-02-01T12:07:19;5.70;99.90
3792;DHT22;1911;53.768;11.474;2023-02-01T12:09:53;5.50;99.90
3792;DHT22;1911;53.768;11.474;2023-02-01T12:12:24;5.40;99.90
3792;DHT22;1911;53.768;11.474;2023-02-01T12:15:14;5.30;99.90
3792;DHT22;1911;53.768;11.474;2023-02-01T12:24:02;5.10;99.90
3792;DHT22;1911;53.768;11.474;2023-02-01T12:38:25;5.20;99.90
3792;DHT22;1911;53.768;11.474;2023-02-01T12:52:05;5.10;99.90
3792;DHT22;1911;53.768;11.474;2023-02-01T12:54:54;5.00;99.90
3792;DHT22;1911;53.768;11.474;2023-02-01T12:57:30;5.10;99.90
3792;DHT22;1911;53.768;11.474;2023-02-01T13:03:00;4.90;99.90
3792;DHT22;1911;53.768;11.474;2023-02-01T13:05:37;4.80;99.90
3792;DHT22;1911;53.768;11.474;2023-02-01T13:08:11;4.70;99.90
3792;DHT22;1911;53.768;11.474;2023-02-01T13:10:45;4.60;99.90
3792;DHT22;1911;53.768;11.474;2023-02-01T13:13:35;4.60;99.90
3792;DHT22;1911;53.768;11.474;2023-02-01T13:16:19;4.60;99.90
3792;DHT22;1911;53.768;11.474;2023-02-01T13:18:52;4.60;99.90
3792;DHT22;1911;53.768;11.474;2023-02-01T13:21:46;4.50;99.90
3792;DHT22;1911;53.768;11.474;2023-02-01T13:59:51;3.70;99.90
3792;DHT22;1911;53.768;11.474;2023-02-01T14:02:45;3.70;99.90
3792;DHT22;1911;53.768;11.474;2023-02-01T14:10:49;3.70;99.90
3792;DHT22;1911;53.768;11.474;2023-02-01T14:13:37;3.70;99.90
3792;DHT22;1911;53.768;11.474;2023-02-01T14:23:42;3.90;99.90
3792;DHT22;1911;53.768;11.474;2023-02-01T14:26:14;4.00;99.90
3792;DHT22;1911;53.768;11.474;2023-02-01T14:28:53;4.10;99.90
3792;DHT22;1911;53.768;11.474;2023-02-01T14:31:44;4.10;99.90
3792;DHT22;1911;53.768;11.474;2023-02-01T14:34:20;4.20;99.90
3792;DHT22;1911;53.768;11.474;2023-02-01T14:36:58;4.20;99.90
3792;DHT22;1911;53.768;11.474;2023-02-01T14:44:52;4.20;99.90
3792;DHT22;1911;53.768;11.474;2023-02-01T14:58:30;4.00;99.90
3792;DHT22;1911;53.768;11.474;2023-02-01T15:01:00;3.90;99.90
3792;DHT22;1911;53.768;11.474;2023-02-01T15:06:32;3.60;99.90
3792;DHT22;1911;53.768;11.474;2023-02-01T15:09:03;3.60;99.90
3792;DHT22;1911;53.768;11.474;2023-02-01T15:11:29;3.60;99.90
3792;DHT22;1911;53.768;11.474;2023-02-01T15:13:55;3.60;99.90
3792;DHT22;1911;53.768;11.474;2023-02-01T15:16:25;3.60;99.90
3792;DHT22;1911;53.768;11.474;2023-02-01T15:19:08;3.70;99.90
3792;DHT22;1911;53.768;11.474;2023-02-01T15:21:44;3.60;99.90
3792;DHT22;1911;53.768;11.474;2023-02-01T15:24:22;3.60;99.90
3792;DHT22;1911;53.768;11.474;2023-02-01T15:26:49;3.60;99.90
3792;DHT22;1911;53.768;11.474;2023-02-01T15:29:18;3.60;99.90
3792;DHT22;1911;53.768;11.474;2023-02-01T15:32:02;3.50;99.90
3792;DHT22;1911;53.768;11.474;2023-02-01T15:34:49;3.60;99.90
3792;DHT22;1911;53.768;11.474;2023-02-01T15:37:16;3.50;99.90
3792;DHT22;1911;53.768;11.474;2023-02-01T15:40:04;3.50;99.90
3792;DHT22;1911;53.768;11.474;2023-02-01T15:42:33;3.60;99.90
3792;DHT22;1911;53.768;11.474;2023-02-01T15:44:59;3.60;99.90
3792;DHT22;1911;53.768;11.474;2023-02-01T15:47:28;3.60;99.90
3792;DHT22;1911;53.768;11.474;2023-02-01T15:50:01;3.70;99.90
3792;DHT22;1911;53.768;11.474;2023-02-01T15:52:36;3.70;99.90
3792;DHT22;1911;53.768;11.474;2023-02-01T15:57:47;3.80;99.90
3792;DHT22;1911;53.768;11.474;2023-02-01T16:00:25;3.80;99.90
3792;DHT22;1911;53.768;11.474;2023-02-01T16:02:55;3.80;99.90
3792;DHT22;1911;53.768;11.474;2023-02-01T16:05:33;3.80;99.90
3792;DHT22;1911;53.768;11.474;2023-02-01T16:08:12;3.90;99.90
3792;DHT22;1911;53.768;11.474;2023-02-01T16:11:21;3.80;99.90
3792;DHT22;1911;53.768;11.474;2023-02-01T16:13:45;3.90;99.90
3792;DHT22;1911;53.768;11.474;2023-02-01T16:16:10;3.90;99.90
3792;DHT22;1911;53.768;11.474;2023-02-01T16:18:42;4.00;99.90
3792;DHT22;1911;53.768;11.474;2023-02-01T16:21:08;4.00;99.90
3792;DHT22;1911;53.768;11.474;2023-02-01T16:23:35;4.00;99.90
3792;DHT22;1911;53.768;11.474;2023-02-01T16:26:04;4.00;99.90
3792;DHT22;1911;53.768;11.474;2023-02-01T16:28:32;4.00;99.90
3792;DHT22;1911;53.768;11.474;2023-02-01T16:30:58;4.00;99.90
3792;DHT22;1911;53.768;11.474;2023-02-01T16:33:25;4.00;99.90
3792;DHT22;1911;53.768;11.474;2023-02-01T16:35:51;4.00;99.90
3792;DHT22;1911;53.768;11.474;2023-02-01T16:38:19;4.00;99.90
3792;DHT22;1911;53.768;11.474;2023-02-01T16:40:49;4.00;99.90
3792;DHT22;1911;53.768;11.474;2023-02-01T16:43:22;4.00;99.90
3792;DHT22;1911;53.768;11.474;2023-02-01T16:45:49;4.00;99.90
3792;DHT22;1911;53.768;11.474;2023-02-01T16:48:28;3.90;99.90
3792;DHT22;1911;53.768;11.474;2023-02-01T16:51:02;4.00;99.90
3792;DHT22;1911;53.768;11.474;2023-02-01T16:53:30;4.00;99.90
3792;DHT22;1911;53.768;11.474;2023-02-01T16:55:56;3.90;99.90
3792;DHT22;1911;53.768;11.474;2023-02-01T16:58:26;3.90;99.90
3792;DHT22;1911;53.768;11.474;2023-02-01T17:00:53;3.90;99.90
3792;DHT22;1911;53.768;11.474;2023-02-01T17:03:20;3.90;99.90
3792;DHT22;1911;53.768;11.474;2023-02-01T17:05:52;3.90;99.90
3792;DHT22;1911;53.768;11.474;2023-02-01T17:08:45;3.80;99.90
3792;DHT22;1911;53.768;11.474;2023-02-01T17:11:12;3.90;99.90
3792;DHT22;1911;53.768;11.474;2023-02-01T17:13:41;3.80;99.90
3792;DHT22;1911;53.768;11.474;2023-02-01T17:16:25;3.80;99.90
3792;DHT22;1911;53.768;11.474;2023-02-01T17:19:13;3.90;99.90
3792;DHT22;1911;53.768;11.474;2023-02-01T17:21:46;4.00;99.90
3792;DHT22;1911;53.768;11.474;2023-02-01T17:24:13;4.10;99.90
3792;DHT22;1911;53.768;11.474;2023-02-01T17:26:42;4.10;99.90
3792;DHT22;1911;53.768;11.474;2023-02-01T17:29:08;4.10;99.90
3792;DHT22;1911;53.768;11.474;2023-02-01T17:31:37;4.20;99.90
3792;DHT22;1911;53.768;11.474;2023-02-01T17:34:03;4.20;99.90
3792;DHT22;1911;53.768;11.474;2023-02-01T17:36:31;4.20;99.90
3792;DHT22;1911;53.768;11.474;2023-02-01T17:38:59;4.20;99.90
3792;DHT22;1911;53.768;11.474;2023-02-01T17:41:25;4.10;99.90
3792;DHT22;1911;53.768;11.474;2023-02-01T17:43:51;4.10;99.90
3792;DHT22;1911;53.768;11.474;2023-02-01T17:46:17;4.10;99.90
3792;DHT22;1911;53.768;11.474;2023-02-01T17:48:45;4.10;99.90
3792;DHT22;1911;53.768;11.474;2023-02-01T17:51:15;4.20;99.90
3792;DHT22;1911;53.768;11.474;2023-02-01T17:53:45;4.20;99.90
3792;DHT22;1911;53.768;11.474;2023-02-01T17:56:21;4.20;99.90
3792;DHT22;1911;53.768;11.474;2023-02-01T17:58:50;4.20;99.90
3792;DHT22;1911;53.768;11.474;2023-02-01T18:48:56;4.80;99.90
3792;DHT22;1911;53.768;11.474;2023-02-01T20:20:13;4.50;99.90
3792;DHT22;1911;53.768;11.474;2023-02-01T20:57:45;4.60;99.90
3792;DHT22;1911;53.768;11.474;2023-02-01T21:34:52;4.60;99.90
3792;DHT22;1911;53.768;11.474;2023-02-01T22:35:44;5.00;99.90
3792;DHT22;1911;53.768;11.474;2023-02-01T22:51:50;4.90;99.90
3792;DHT22;1911;53.768;11.474;2023-02-01T22:54:18;4.80;99.90
3792;DHT22;1911;53.768;11.474;2023-02-01T22:56:46;4.80;99.90
3792;DHT22;1911;53.768;11.474;2023-02-01T22:59:13;4.70;99.90
3792;DHT22;1911;53.768;11.474;2023-02-01T23:01:39;4.70;99.90
3792;DHT22;1911;53.768;11.474;2023-02-01T23:04:08;4.80;99.90
3792;DHT22;1911;53.768;11.474;2023-02-01T23:06:34;4.80;99.90
3792;DHT22;1911;53.768;11.474;2023-02-01T23:09:04;4.90;99.90
3792;DHT22;1911;53.768;11.474;2023-02-01T23:11:30;4.80;99.90
3792;DHT22;1911;53.768;11.474;2023-02-01T23:13:56;4.90;99.90
3792;DHT22;1911;53.768;11.474;2023-02-01T23:16:22;4.90;99.90
3792;DHT22;1911;53.768;11.474;2023-02-01T23:18:48;4.90;99.90
3792;DHT22;1911;53.768;11.474;2023-02-01T23:21:18;5.00;99.90
3792;DHT22;1911;53.768;11.474;2023-02-01T23:23:46;5.00;99.90
3792;DHT22;1911;53.768;11.474;2023-02-01T23:26:12;5.00;99.90
3792;DHT22;1911;53.768;11.474;2023-02-01T23:28:38;5.10;99.90
3792;DHT22;1911;53.768;11.474;2023-02-01T23:31:08;5.10;99.90
3792;DHT22;1911;53.768;11.474;2023-02-01T23:33:34;5.20;99.90
3792;DHT22;1911;53.768;11.474;2023-02-01T23:36:01;5.20;99.90
3792;DHT22;1911;53.768;11.474;2023-02-01T23:38:28;5.10;99.90
3792;DHT22;1911;53.768;11.474;2023-02-01T23:40:58;5.10;99.90
3792;DHT22;1911;53.768;11.474;2023-02-01T23:43:24;5.10;99.90
3792;DHT22;1911;53.768;11.474;2023-02-01T23:46:09;5.10;99.90
3792;DHT22;1911;53.768;11.474;2023-02-01T23:48:35;5.10;99.90
3792;DHT22;1911;53.768;11.474;2023-02-01T23:51:01;5.10;99.90
3792;DHT22;1911;53.768;11.474;2023-02-01T23:53:26;5.20;99.90
3792;DHT22;1911;53.768;11.474;2023-02-01T23:55:53;5.20;99.90
3792;DHT22;1911;53.768;11.474;2023-02-01T23:58:19;5.10;99.90
